Time;durP1;ratioP1;P1;durP2;ratioP2;P2;SDS_P1;SDS_P2;PMS_P1;PMS_P2;Temp;Humidity;BMP_temperature;BMP_pressure;BME280_temperature;BME280_humidity;BME280_pressure;Samples;Min_cycle;Max_cycle;Signal;HPM_P1;HPM_P2
2021/10/29 00:01:55;;;;;;;92.95;50.03;;;;;;;7.91;92.92;101663.81;1771131;81;21221;-52
2021/10/29 00:05:02;;;;;;;81.12;47.00;;;;;;;7.90;93.16;101665.28;1771473;81;21273;-53
2021/10/29 00:08:08;;;;;;;74.00;45.35;;;;;;;7.86;93.34;101671.99;1771540;80;21232;-54
2021/10/29 00:11:14;;;;;;;74.58;43.45;;;;;;;7.83;93.46;101668.16;1771149;81;21177;-53
2021/10/29 00:14:20;;;;;;;73.17;44.15;;;;;;;7.85;93.47;101668.91;1771200;80;21200;-53
2021/10/29 00:17:27;;;;;;;67.25;39.75;;;;;;;7.88;93.50;101674.11;1770463;80;21185;-52
2021/10/29 00:20:32;;;;;;;62.30;41.92;;;;;;;7.93;93.41;101665.05;1770908;80;21352;-53
2021/10/29 00:23:37;;;;;;;55.75;38.48;;;;;;;8.04;93.66;101667.75;1770809;80;21176;-54
2021/10/29 00:26:42;;;;;;;62.70;43.78;;;;;;;8.19;93.86;101677.36;1771737;80;21876;-53
2021/10/29 00:29:48;;;;;;;55.05;41.37;;;;;;;8.28;93.84;101672.51;1770443;80;21191;-54
2021/10/29 00:32:53;;;;;;;51.58;36.15;;;;;;;8.40;94.01;101667.39;1762970;80;21169;-54
2021/10/29 00:35:58;;;;;;;50.30;33.55;;;;;;;8.53;94.27;101674.91;1772181;80;21340;-53
2021/10/29 00:39:04;;;;;;;56.55;36.15;;;;;;;8.67;94.59;101674.06;1771286;80;21185;-53
2021/10/29 00:42:11;;;;;;;50.10;34.92;;;;;;;8.81;94.97;101678.35;1770775;81;21196;-54
2021/10/29 00:45:18;;;;;;;49.83;33.92;;;;;;;8.93;95.18;101671.81;1771597;80;21213;-52
2021/10/29 00:48:24;;;;;;;49.58;34.88;;;;;;;9.04;95.38;101675.34;1770991;80;21177;-52
2021/10/29 00:51:29;;;;;;;42.98;29.42;;;;;;;9.13;95.57;101670.95;1770818;79;21214;-53
2021/10/29 00:54:35;;;;;;;40.20;26.73;;;;;;;9.23;95.77;101678.67;1771475;80;21292;-53
2021/10/29 00:57:41;;;;;;;37.38;24.30;;;;;;;9.33;95.98;101670.03;1759556;80;21201;-53
2021/10/29 01:00:48;;;;;;;37.60;23.85;;;;;;;9.42;96.21;101677.41;1744085;80;21205;-52
2021/10/29 01:03:54;;;;;;;39.18;25.23;;;;;;;9.51;96.57;101673.87;1771510;80;21240;-54
2021/10/29 01:07:03;;;;;;;33.33;24.45;;;;;;;9.59;96.69;101675.91;1770630;80;21197;-54
2021/10/29 01:10:08;;;;;;;32.50;22.60;;;;;;;9.62;96.80;101676.50;1770944;80;21229;-53
2021/10/29 01:13:15;;;;;;;33.33;23.52;;;;;;;9.67;96.91;101678.29;1771489;80;21192;-53
2021/10/29 01:16:22;;;;;;;34.58;22.87;;;;;;;9.69;97.03;101676.29;1771802;80;21253;-53
2021/10/29 01:19:31;;;;;;;34.20;23.45;;;;;;;9.74;97.16;101680.85;1771299;80;21204;-54
2021/10/29 01:22:37;;;;;;;31.93;22.30;;;;;;;9.75;97.23;101684.45;1771287;80;21284;-53
2021/10/29 01:25:42;;;;;;;31.20;21.93;;;;;;;9.77;97.32;101689.27;1762530;81;21363;-54
2021/10/29 01:28:48;;;;;;;37.03;23.75;;;;;;;9.78;97.33;101686.42;1771752;80;21323;-53
2021/10/29 01:31:55;;;;;;;33.92;22.37;;;;;;;9.82;97.38;101688.34;1770903;80;21323;-53
2021/10/29 01:35:01;;;;;;;34.70;23.30;;;;;;;9.84;97.30;101689.08;1771343;80;21232;-53
2021/10/29 01:38:06;;;;;;;30.00;20.90;;;;;;;9.81;97.15;101688.88;1771685;80;21233;-54
2021/10/29 01:41:11;;;;;;;34.35;23.73;;;;;;;9.82;97.20;101702.02;1771932;80;21298;-53
2021/10/29 01:44:20;;;;;;;34.10;22.98;;;;;;;9.81;97.11;101697.56;1771288;80;21158;-53
2021/10/29 01:47:28;;;;;;;37.15;23.15;;;;;;;9.75;97.12;101701.70;1772078;80;21859;-54
2021/10/29 01:50:33;;;;;;;33.78;23.30;;;;;;;9.73;97.13;101703.73;1771447;80;21240;-52
2021/10/29 01:53:38;;;;;;;35.33;22.45;;;;;;;9.71;97.09;101707.59;1771579;80;21252;-52
2021/10/29 01:56:44;;;;;;;34.88;22.98;;;;;;;9.68;97.12;101711.48;1771352;81;21778;-53
2021/10/29 01:59:50;;;;;;;37.40;23.90;;;;;;;9.63;97.11;101709.66;1770961;80;21153;-54
2021/10/29 02:02:59;;;;;;;35.95;22.93;;;;;;;9.58;97.17;101710.57;1771436;80;21245;-54
2021/10/29 02:06:05;;;;;;;36.88;23.12;;;;;;;9.53;97.24;101707.38;1771478;81;21189;-54
2021/10/29 02:09:12;;;;;;;33.90;22.62;;;;;;;9.50;97.30;101717.75;1771788;80;21315;-53
2021/10/29 02:12:18;;;;;;;35.83;22.65;;;;;;;9.47;97.40;101720.72;1771581;81;21252;-54
2021/10/29 02:15:26;;;;;;;32.58;22.62;;;;;;;9.45;97.50;101725.48;1763053;81;21350;-53
2021/10/29 02:18:33;;;;;;;32.58;22.00;;;;;;;9.44;97.70;101726.46;1771363;80;21174;-55
2021/10/29 02:21:39;;;;;;;34.55;22.50;;;;;;;9.42;97.77;101723.86;1771436;80;21193;-53
2021/10/29 02:24:45;;;;;;;37.03;22.60;;;;;;;9.39;97.84;101726.03;1771271;80;21249;-54
2021/10/29 02:27:52;;;;;;;30.95;21.50;;;;;;;9.40;98.11;101727.75;1771533;80;21205;-53
2021/10/29 02:30:59;;;;;;;41.33;24.27;;;;;;;9.39;98.26;101732.34;1770938;80;21303;-56
2021/10/29 02:34:05;;;;;;;31.55;21.40;;;;;;;9.33;98.26;101726.05;1771290;81;21256;-54
2021/10/29 02:37:15;;;;;;;32.17;21.05;;;;;;;9.30;98.44;101735.89;1770897;81;21217;-54
2021/10/29 02:40:20;;;;;;;29.20;20.52;;;;;;;9.27;98.56;101737.53;1771081;81;21212;-53
2021/10/29 02:43:26;;;;;;;29.42;19.30;;;;;;;9.25;98.73;101738.16;1771030;80;21170;-53
2021/10/29 02:46:33;;;;;;;26.70;17.45;;;;;;;9.24;98.90;101743.76;1771223;80;21320;-54
2021/10/29 02:49:40;;;;;;;27.13;19.02;;;;;;;9.25;99.01;101742.74;1771323;80;21170;-53
2021/10/29 02:52:45;;;;;;;27.27;18.65;;;;;;;9.24;99.02;101751.47;1772608;79;21327;-53
2021/10/29 02:55:54;;;;;;;30.43;20.02;;;;;;;9.24;99.18;101746.48;1771431;81;21267;-53
2021/10/29 02:58:59;;;;;;;28.45;18.95;;;;;;;9.26;99.29;101752.70;1770347;80;21224;-52
2021/10/29 03:02:05;;;;;;;30.12;19.02;;;;;;;9.24;99.33;101752.83;1771550;80;21316;-53
2021/10/29 03:05:13;;;;;;;26.87;17.67;;;;;;;9.27;99.43;101763.48;1771088;80;21615;-52
2021/10/29 03:08:21;;;;;;;25.92;18.00;;;;;;;9.26;99.33;101772.67;1771034;81;21181;-53
2021/10/29 03:11:26;;;;;;;31.57;18.07;;;;;;;9.24;99.26;101772.45;1771131;81;21216;-57
2021/10/29 03:14:31;;;;;;;28.65;18.05;;;;;;;9.17;99.11;101782.16;1771165;81;21188;-57
2021/10/29 03:17:37;;;;;;;35.13;18.85;;;;;;;9.12;99.20;101777.09;1771442;80;21247;-58
2021/10/29 03:20:43;;;;;;;29.25;18.95;;;;;;;9.09;99.19;101779.61;1771338;80;21271;-56
2021/10/29 03:23:50;;;;;;;31.42;18.55;;;;;;;9.06;99.21;101783.10;1771457;80;21268;-58
2021/10/29 03:26:56;;;;;;;25.62;17.80;;;;;;;9.01;99.30;101789.45;1771207;80;21316;-57
2021/10/29 03:30:04;;;;;;;26.50;18.23;;;;;;;9.00;99.44;101792.70;1770966;80;21219;-57
2021/10/29 03:33:13;;;;;;;34.98;19.65;;;;;;;8.99;99.57;101792.31;1771286;81;21240;-58
2021/10/29 03:36:19;;;;;;;24.10;18.10;;;;;;;9.02;99.66;101799.41;1771222;81;21308;-57
2021/10/29 03:39:31;;;;;;;29.15;18.15;;;;;;;8.98;99.59;101806.11;1771412;81;21248;-58
2021/10/29 03:42:48;;;;;;;24.95;17.55;;;;;;;8.92;99.58;101799.32;1771321;81;21181;-58
2021/10/29 03:45:51;;;;;;;28.83;16.30;;;;;;;8.92;99.67;101798.44;1771317;81;21248;-57
2021/10/29 03:52:21;;;;;;;23.50;17.17;;;;;;;8.85;99.71;101807.66;1771628;80;21243;-58
2021/10/29 03:55:18;;;;;;;27.85;17.82;;;;;;;8.84;99.81;101800.95;1764659;80;21185;-58
2021/10/29 03:58:24;;;;;;;23.27;16.27;;;;;;;8.86;99.89;101809.89;1771383;80;21857;-57
2021/10/29 04:01:34;;;;;;;27.25;18.30;;;;;;;8.85;99.79;101813.59;1772265;79;21844;-57
2021/10/29 04:04:41;;;;;;;22.55;16.48;;;;;;;8.81;99.77;101814.39;1774267;80;21177;-56
2021/10/29 04:07:50;;;;;;;24.57;16.82;;;;;;;8.82;99.77;101823.42;1773181;80;21328;-57
2021/10/29 04:10:57;;;;;;;21.93;15.30;;;;;;;8.82;99.83;101828.88;1773174;80;21193;-57
2021/10/29 04:14:10;;;;;;;21.60;15.75;;;;;;;8.82;99.84;101835.70;1773437;80;21201;-58
2021/10/29 04:17:17;;;;;;;22.73;16.77;;;;;;;8.79;99.81;101831.39;1773737;80;21177;-59
2021/10/29 04:20:23;;;;;;;22.80;15.85;;;;;;;8.76;99.71;101835.74;1773258;80;21212;-58
2021/10/29 04:23:28;;;;;;;30.40;16.60;;;;;;;8.75;99.78;101844.91;1773876;80;21319;-59
2021/10/29 04:26:34;;;;;;;23.47;16.10;;;;;;;8.75;99.82;101840.81;1772876;80;21379;-57
2021/10/29 04:29:40;;;;;;;22.90;16.20;;;;;;;8.81;100.00;101846.27;1773334;80;21829;-59
2021/10/29 04:32:47;;;;;;;26.20;16.80;;;;;;;8.84;100.00;101851.47;1773018;80;21280;-58
2021/10/29 04:35:55;;;;;;;24.32;16.73;;;;;;;8.80;99.74;101856.84;1768927;80;21228;-59
2021/10/29 04:39:00;;;;;;;24.15;16.67;;;;;;;8.77;99.79;101866.63;1762228;81;21836;-58
2021/10/29 04:42:06;;;;;;;24.63;16.80;;;;;;;8.83;99.99;101868.87;1761837;81;21354;-57
2021/10/29 04:45:12;;;;;;;27.15;18.02;;;;;;;8.84;99.90;101869.22;1759254;81;21961;-57
2021/10/29 04:48:19;;;;;;;24.90;15.95;;;;;;;8.84;99.80;101871.47;1733667;81;21301;-57
2021/10/29 04:51:27;;;;;;;20.72;14.30;;;;;;;8.86;99.88;101875.44;1747104;80;21260;-58
2021/10/29 04:54:32;;;;;;;22.98;14.25;;;;;;;8.90;99.95;101895.52;1767742;81;21197;-57
2021/10/29 04:57:40;;;;;;;23.07;15.72;;;;;;;8.93;99.89;101898.00;1730493;80;21180;-57
2021/10/29 05:00:48;;;;;;;21.00;14.35;;;;;;;8.92;99.69;101894.91;1750969;81;21331;-58
2021/10/29 05:03:56;;;;;;;19.95;13.90;;;;;;;8.94;99.72;101907.06;1768537;80;21720;-58
2021/10/29 05:07:04;;;;;;;25.48;17.37;;;;;;;8.96;99.56;101910.52;1765995;81;21852;-59
2021/10/29 05:10:12;;;;;;;23.73;17.30;;;;;;;8.96;99.56;101918.22;1768827;81;21800;-59
2021/10/29 05:13:18;;;;;;;23.15;15.93;;;;;;;9.02;99.56;101920.95;1759724;81;21550;-58
2021/10/29 05:16:24;;;;;;;19.60;13.43;;;;;;;9.01;99.29;101910.52;1769279;80;21770;-59
2021/10/29 05:19:31;;;;;;;20.57;14.53;;;;;;;9.03;99.19;101907.66;1769107;80;21589;-58
2021/10/29 05:22:39;;;;;;;21.17;15.20;;;;;;;9.08;99.14;101906.77;1766098;80;21226;-58
2021/10/29 05:25:44;;;;;;;26.00;18.40;;;;;;;9.10;98.96;101897.44;1764215;80;21216;-58
2021/10/29 05:28:53;;;;;;;30.55;19.57;;;;;;;9.12;98.67;101904.14;1744543;81;21800;-58
2021/10/29 05:32:01;;;;;;;29.82;20.60;;;;;;;9.12;98.50;101904.66;1765954;80;22019;-58
2021/10/29 05:35:08;;;;;;;35.45;22.27;;;;;;;9.16;98.50;101913.83;1754266;80;21589;-57
2021/10/29 05:38:13;;;;;;;26.15;17.52;;;;;;;9.22;98.37;101913.30;1761246;81;22029;-57
2021/10/29 05:41:21;;;;;;;25.68;16.30;;;;;;;9.25;98.19;101923.09;1763371;80;21221;-59
2021/10/29 05:44:28;;;;;;;24.02;16.73;;;;;;;9.29;98.12;101923.22;1769267;80;21185;-59
2021/10/29 05:47:34;;;;;;;21.87;14.68;;;;;;;9.34;97.93;101930.53;1769415;80;21340;-57
2021/10/29 05:50:47;;;;;;;24.95;14.95;;;;;;;9.38;97.70;101926.03;1769043;81;21204;-57
2021/10/29 05:56:56;;;;;;;28.10;14.38;;;;;;;9.50;97.38;101939.16;1771084;79;21220;-57
2021/10/29 06:00:02;;;;;;;24.63;14.83;;;;;;;9.53;97.01;101934.80;1761697;81;21221;-58
2021/10/29 06:03:12;;;;;;;20.68;14.40;;;;;;;9.57;96.85;101941.23;1770152;79;21776;-56
2021/10/29 06:06:19;;;;;;;23.90;14.93;;;;;;;9.62;96.55;101947.18;1769905;80;21796;-54
2021/10/29 06:09:23;;;;;;;21.40;14.23;;;;;;;9.60;96.14;101947.80;1758176;79;21243;-53
2021/10/29 06:12:32;;;;;;;22.52;15.45;;;;;;;9.63;96.03;101947.54;1787016;79;22045;-53
2021/10/29 06:15:42;;;;;;;17.98;12.45;;;;;;;9.71;95.90;101946.87;1769768;80;21325;-53
2021/10/29 06:18:48;;;;;;;19.98;13.65;;;;;;;9.80;95.71;101958.41;1742762;81;21196;-53
2021/10/29 06:25:05;;;;;;;19.87;13.40;;;;;;;9.90;95.10;101962.94;1733479;82;21284;-54
2021/10/29 06:28:14;;;;;;;21.77;13.62;;;;;;;9.97;94.65;101966.85;1756999;81;21243;-53
2021/10/29 06:31:22;;;;;;;18.90;12.50;;;;;;;10.04;94.25;101968.56;1758319;81;21212;-53
2021/10/29 06:34:30;;;;;;;17.67;11.33;;;;;;;10.12;93.82;101968.80;1736213;81;21248;-52
2021/10/29 06:37:36;;;;;;;18.92;13.83;;;;;;;10.17;93.22;101979.72;1739851;82;21200;-53
2021/10/29 06:40:43;;;;;;;15.68;11.08;;;;;;;10.26;92.84;101970.69;1749910;81;21757;-53
2021/10/29 07:00:41;;;;;;;17.05;11.03;;;;;;;10.72;88.92;101970.19;1669568;83;21810;-52
2021/10/29 07:40:58;;;;;;;;;;;;;;;10.97;81.30;101986.17;1717567;83;21745;-52
2021/10/29 07:44:12;;;;;;;18.20;10.72;;;;;;;10.90;81.22;101987.72;1702101;83;20208;-53
2021/10/29 07:47:11;;;;;;;17.02;11.70;;;;;;;10.88;81.29;101993.83;1706792;83;21185;-52
2021/10/29 07:50:18;;;;;;;14.10;9.75;;;;;;;10.86;81.21;101982.13;1722137;82;21211;-52
2021/10/29 07:53:25;;;;;;;17.82;11.15;;;;;;;10.86;81.10;101985.40;1709108;83;21170;-52
2021/10/29 07:56:32;;;;;;;15.00;9.88;;;;;;;10.87;81.14;101988.00;1708995;83;21210;-52
2021/10/29 07:59:43;;;;;;;17.48;10.58;;;;;;;10.92;80.96;101990.31;1725655;81;21192;-54
2021/10/29 08:02:55;;;;;;;16.05;9.93;;;;;;;10.96;80.73;101985.78;1705414;83;21226;-54
2021/10/29 08:06:04;;;;;;;17.27;11.53;;;;;;;11.08;80.59;101995.65;1709179;83;21722;-51
2021/10/29 08:09:11;;;;;;;19.07;11.03;;;;;;;11.19;80.36;101999.64;1709684;83;21292;-53
2021/10/29 08:12:19;;;;;;;18.98;12.33;;;;;;;11.31;80.13;101998.51;1723649;83;21208;-52
2021/10/29 08:15:24;;;;;;;15.65;10.88;;;;;;;11.39;79.55;102000.04;1733541;82;21263;-53
2021/10/29 08:18:33;;;;;;;17.75;11.40;;;;;;;11.32;79.27;102002.97;1697289;84;21737;-53
2021/10/29 08:21:37;;;;;;;16.55;10.20;;;;;;;11.33;79.12;102007.47;1709984;83;21223;-53
2021/10/29 08:24:44;;;;;;;17.25;12.73;;;;;;;11.35;79.04;102001.84;1672768;85;21208;-53
2021/10/29 08:27:49;;;;;;;14.80;10.23;;;;;;;11.46;79.04;102007.20;1673622;85;21713;-52
2021/10/29 08:30:58;;;;;;;14.60;9.98;;;;;;;11.58;78.96;102001.93;1711686;83;21219;-53
2021/10/29 08:34:03;;;;;;;15.50;10.28;;;;;;;11.72;78.57;102010.64;1735981;81;21189;-52
2021/10/29 08:37:10;;;;;;;12.23;9.03;;;;;;;11.85;78.36;102014.47;1696046;84;21198;-53
2021/10/29 08:40:15;;;;;;;16.17;10.00;;;;;;;11.95;77.86;102019.47;1689894;84;21230;-53
2021/10/29 08:43:24;;;;;;;15.55;10.60;;;;;;;12.08;77.17;102012.30;1707882;83;21217;-54
2021/10/29 08:46:33;;;;;;;15.20;10.38;;;;;;;12.25;76.74;102015.17;1714607;83;21245;-53
2021/10/29 08:49:40;;;;;;;15.88;11.30;;;;;;;12.36;75.83;102011.39;1699509;83;21916;-54
2021/10/29 08:52:44;;;;;;;20.50;12.00;;;;;;;12.38;75.02;102017.61;1740242;81;21212;-54
2021/10/29 08:55:51;;;;;;;19.60;11.28;;;;;;;12.43;74.74;102012.02;1716547;81;21231;-54
2021/10/29 08:59:16;;;;;;;21.30;11.08;;;;;;;12.42;74.32;102004.80;1689761;83;21757;-54
2021/10/29 09:02:30;;;;;;;22.67;11.33;;;;;;;12.47;74.41;102013.47;1737360;81;21293;-54
2021/10/29 09:05:51;;;;;;;;;;;;;;;12.53;74.30;102016.98;1710798;82;21257;-55
2021/10/29 09:09:01;;;;;;;21.40;12.18;;;;;;;12.55;74.03;102020.95;1702834;83;20198;-54
2021/10/29 09:32:08;;;;;;;15.73;9.93;;;;;;;12.48;73.21;102013.81;1698424;83;20573;-49
2021/10/29 09:35:19;;;;;;;15.10;9.68;;;;;;;12.56;72.84;102010.34;1702710;83;21233;-49
2021/10/29 09:38:27;;;;;;;13.22;10.13;;;;;;;12.62;72.47;102013.87;1702592;83;21201;-50
2021/10/29 09:41:35;;;;;;;12.53;9.58;;;;;;;12.70;72.26;102012.61;1687062;85;21606;-50
2021/10/29 09:44:54;;;;;;;12.05;9.65;;;;;;;12.75;71.72;102004.26;1707687;82;21184;-49
2021/10/29 09:48:21;;;;;;;15.05;10.82;;;;;;;12.78;71.02;102012.20;1725307;83;21206;-50
2021/10/29 09:51:26;;;;;;;16.02;10.55;;;;;;;12.73;70.76;102012.31;1689701;84;21236;-49
2021/10/29 09:54:38;;;;;;;14.15;10.70;;;;;;;12.74;70.78;102013.53;1700308;83;21239;-49
2021/10/29 09:57:41;;;;;;;13.32;9.58;;;;;;;12.82;70.88;102012.27;1696065;84;21249;-49
2021/10/29 10:00:48;;;;;;;14.20;9.78;;;;;;;12.93;70.67;102009.33;1695219;83;21190;-50
2021/10/29 10:03:57;;;;;;;15.68;8.98;;;;;;;13.04;70.15;102003.67;1694151;84;21213;-49
2021/10/29 10:07:03;;;;;;;11.15;8.13;;;;;;;13.15;69.66;102008.09;1698564;79;21846;-53
2021/10/29 10:10:13;;;;;;;12.28;8.85;;;;;;;13.22;68.99;102007.31;1668655;84;21861;-54
2021/10/29 10:13:23;;;;;;;17.15;9.08;;;;;;;13.34;68.77;102014.86;1725577;81;21531;-54
2021/10/29 10:16:29;;;;;;;11.83;8.83;;;;;;;13.48;68.78;102008.33;1747262;82;21483;-55
2021/10/29 10:19:35;;;;;;;11.90;9.43;;;;;;;13.64;68.54;102010.91;1693956;84;21754;-55
2021/10/29 10:22:47;;;;;;;17.62;9.83;;;;;;;13.80;67.93;102016.05;1739181;81;21196;-54
2021/10/29 10:29:22;;;;;;;15.95;8.95;;;;;;;13.92;66.85;102008.44;1723146;83;21424;-55
2021/10/29 10:42:42;;;;;;;12.23;8.55;;;;;;;14.30;66.19;101998.47;1695891;84;21853;-55
2021/10/29 10:45:58;;;;;;;14.05;8.93;;;;;;;14.32;65.46;102004.16;1695590;84;21295;-55
2021/10/29 10:49:11;;;;;;;19.40;12.80;;;;;;;14.36;65.41;102000.08;1695962;84;21195;-55
2021/10/29 10:52:25;;;;;;;11.83;8.40;;;;;;;14.38;64.84;101993.02;1689305;83;21789;-53
2021/10/29 10:55:31;;;;;;;21.45;10.78;;;;;;;14.40;64.74;101994.58;1702734;83;21262;-55
2021/10/29 10:58:54;;;;;;;12.37;7.92;;;;;;;14.50;64.92;102001.36;1703271;81;21599;-55
2021/10/29 11:02:18;;;;;;;10.18;7.53;;;;;;;14.55;64.34;101998.99;1685720;83;21212;-53
2021/10/29 11:05:21;;;;;;;11.15;6.75;;;;;;;14.61;64.30;102003.84;1672845;85;21232;-55
2021/10/29 11:11:36;;;;;;;10.78;7.70;;;;;;;14.73;63.51;102001.19;1766444;80;21275;-54
2021/10/29 11:14:44;;;;;;;10.60;7.03;;;;;;;14.78;62.96;102003.78;1759516;81;21200;-55
2021/10/29 11:18:03;;;;;;;15.20;8.80;;;;;;;14.82;62.58;102002.95;1759534;81;21698;-53
2021/10/29 11:21:20;;;;;;;11.20;6.55;;;;;;;14.87;62.59;102000.57;1760306;81;21349;-52
2021/10/29 11:24:40;;;;;;;14.03;10.20;;;;;;;14.98;61.65;102000.28;1769402;80;21184;-55
2021/10/29 11:27:46;;;;;;;10.45;6.42;;;;;;;15.04;61.24;101998.23;1761762;79;21561;-55
2021/10/29 11:30:53;;;;;;;9.58;6.47;;;;;;;15.14;61.35;101997.61;1769788;80;21304;-55
2021/10/29 11:34:01;;;;;;;10.50;6.70;;;;;;;15.23;60.96;101995.22;1744277;81;21330;-54
2021/10/29 11:37:07;;;;;;;14.35;7.58;;;;;;;15.31;60.79;101998.01;1739834;82;21200;-55
2021/10/29 11:40:14;;;;;;;31.30;12.45;;;;;;;15.41;60.57;101993.25;1751718;79;21204;-55
2021/10/29 11:43:34;;;;;;;19.87;9.70;;;;;;;15.54;60.18;101999.13;1769611;81;21777;-54
2021/10/29 11:46:40;;;;;;;14.10;8.00;;;;;;;15.65;59.73;101997.43;1769294;80;21181;-53
2021/10/29 11:49:46;;;;;;;10.70;6.87;;;;;;;15.65;58.95;101998.81;1769347;80;21518;-54
2021/10/29 11:52:53;;;;;;;12.82;6.17;;;;;;;15.64;59.05;101996.22;1760967;80;21554;-54
2021/10/29 11:56:02;;;;;;;10.53;6.75;;;;;;;15.67;58.86;101993.99;1730632;82;21843;-54
2021/10/29 12:09:35;;;;;;;;;;;;;;;15.80;57.53;102010.94;1741232;81;21726;-54
2021/10/29 12:12:45;;;;;;;10.20;5.80;;;;;;;15.85;57.21;102007.15;1756032;80;20210;-55
2021/10/29 12:15:52;;;;;;;9.05;5.45;;;;;;;15.93;57.55;102005.78;1747608;81;21229;-55
2021/10/29 12:19:08;;;;;;;8.05;5.33;;;;;;;16.00;56.94;102004.55;1763833;80;21252;-55
2021/10/29 12:28:43;;;;;;;10.05;5.30;;;;;;;15.94;56.29;102006.12;1766174;80;21196;-55
2021/10/29 12:32:29;;;;;;;10.32;5.40;;;;;;;15.98;56.48;102003.34;1759156;81;22122;-54
2021/10/29 13:02:11;;;;;;;11.60;5.75;;;;;;;15.66;56.09;102006.08;1756955;80;21204;-54
2021/10/29 13:05:23;;;;;;;8.60;5.47;;;;;;;15.65;56.56;102004.88;1760824;80;21221;-54
2021/10/29 13:08:29;;;;;;;8.88;5.62;;;;;;;15.70;56.42;102005.20;1764976;80;21768;-55
2021/10/29 13:11:39;;;;;;;14.33;8.55;;;;;;;15.65;56.11;102007.09;1728601;81;21500;-54
2021/10/29 13:14:57;;;;;;;9.38;5.42;;;;;;;15.60;55.96;102010.88;1742716;80;21289;-55
2021/10/29 13:18:06;;;;;;;10.50;5.78;;;;;;;15.56;56.00;102005.36;1738149;82;22073;-55
2021/10/29 13:37:58;;;;;;;11.48;5.70;;;;;;;14.83;56.88;102011.56;1725509;80;21239;-54
2021/10/29 13:54:30;;;;;;;12.40;5.00;;;;;;;14.41;57.90;102014.20;1748796;81;21211;-55
2021/10/29 14:01:17;;;;;;;17.50;6.80;;;;;;;14.21;58.42;102015.41;1766753;81;21220;-54
2021/10/29 14:31:56;;;;;;;20.52;11.48;;;;;;;12.90;62.33;102011.02;1740518;82;21750;-54
2021/10/29 14:34:42;;;;;;;36.15;22.07;;;;;;;12.71;62.82;102017.08;1740451;82;21338;-54
2021/10/29 14:37:37;;;;;;;28.57;15.93;;;;;;;12.56;63.30;102015.84;1768201;81;21367;-54
2021/10/29 14:41:05;;;;;;;27.42;13.35;;;;;;;12.41;63.80;102019.56;1770276;80;21308;-54
2021/10/29 14:43:51;;;;;;;27.05;13.68;;;;;;;12.27;64.33;102026.89;1769301;81;21197;-55
2021/10/29 15:27:32;;;;;;;29.70;14.95;;;;;;;10.79;69.89;102056.80;1762115;80;21209;-56
2021/10/29 15:40:55;;;;;;;264.90;130.03;;;;;;;10.61;70.31;102063.93;1755825;81;21746;-55
2021/10/29 15:47:04;;;;;;;129.80;58.83;;;;;;;10.12;70.96;102054.50;1768028;81;21196;-55
2021/10/29 15:50:08;;;;;;;102.65;47.60;;;;;;;9.99;71.58;102066.09;1765908;81;21208;-55
2021/10/29 15:53:15;;;;;;;165.88;78.60;;;;;;;9.88;72.14;102066.63;1765684;80;21188;-55
2021/10/29 15:56:38;;;;;;;251.02;115.17;;;;;;;9.76;72.23;102069.92;1737926;82;21275;-54
2021/10/29 15:59:50;;;;;;;282.40;132.27;;;;;;;9.59;72.39;102070.48;1737601;82;21212;-54
2021/10/29 16:03:07;;;;;;;287.75;136.40;;;;;;;9.46;72.70;102083.44;1737662;82;21777;-54
2021/10/29 16:19:35;;;;;;;244.80;119.47;;;;;;;8.86;74.61;102077.52;1765180;81;21709;-55
2021/10/29 16:22:41;;;;;;;260.35;128.53;;;;;;;8.74;74.55;102076.64;1766394;81;21200;-55
2021/10/29 16:25:54;;;;;;;266.45;131.75;;;;;;;8.62;74.58;102080.84;1767314;81;21239;-55
2021/10/29 16:28:59;;;;;;;319.65;153.02;;;;;;;8.49;74.88;102080.07;1768267;80;21236;-54
2021/10/29 16:32:14;;;;;;;357.80;169.57;;;;;;;8.38;75.15;102089.59;1758672;81;21362;-54
2021/10/29 16:35:12;;;;;;;448.28;224.00;;;;;;;8.27;75.57;102090.45;1761235;80;21275;-54
2021/10/29 16:38:18;;;;;;;462.98;227.47;;;;;;;8.16;76.08;102090.38;1768847;80;21426;-54
2021/10/29 16:41:24;;;;;;;441.27;209.90;;;;;;;8.09;76.54;102100.49;1754103;81;21616;-54
2021/10/29 16:44:30;;;;;;;481.37;245.55;;;;;;;8.03;76.78;102107.79;1760375;81;22001;-54
2021/10/29 16:47:36;;;;;;;478.27;243.42;;;;;;;7.99;77.11;102105.78;1761239;80;21887;-54
2021/10/29 16:50:42;;;;;;;400.92;190.53;;;;;;;7.96;77.43;102107.91;1759947;81;21184;-54
2021/10/29 16:53:50;;;;;;;395.97;182.25;;;;;;;7.91;77.76;102112.34;1744399;81;21938;-53
2021/10/29 16:56:55;;;;;;;378.62;186.67;;;;;;;7.88;78.16;102116.64;1760209;81;21176;-53
2021/10/29 17:00:03;;;;;;;392.10;186.82;;;;;;;7.82;78.15;102128.53;1760302;81;21844;-54
2021/10/29 17:03:09;;;;;;;375.25;181.50;;;;;;;7.74;78.03;102128.23;1760982;81;21204;-54
2021/10/29 17:06:14;;;;;;;365.77;175.22;;;;;;;7.63;77.84;102124.45;1762117;81;21417;-54
2021/10/29 17:09:23;;;;;;;317.82;141.50;;;;;;;7.53;77.86;102131.56;1762050;81;21215;-55
2021/10/29 17:12:29;;;;;;;329.35;150.40;;;;;;;7.46;78.34;102128.92;1761875;81;21239;-54
2021/10/29 17:15:38;;;;;;;293.48;134.43;;;;;;;7.42;78.93;102121.09;1762129;80;21243;-53
2021/10/29 17:18:43;;;;;;;306.40;142.28;;;;;;;7.36;79.11;102125.13;1762708;81;21346;-53
2021/10/29 17:21:50;;;;;;;307.43;142.62;;;;;;;7.31;79.30;102135.48;1762519;81;21177;-53
2021/10/29 17:24:56;;;;;;;282.70;137.70;;;;;;;7.23;79.34;102129.73;1762702;81;21343;-55
2021/10/29 17:28:02;;;;;;;267.57;132.93;;;;;;;7.17;79.38;102127.94;1762718;81;21338;-54
2021/10/29 17:31:10;;;;;;;279.00;132.50;;;;;;;7.12;79.61;102133.72;1762757;81;21339;-55
2021/10/29 17:34:15;;;;;;;327.55;143.62;;;;;;;7.06;79.61;102142.34;1762711;81;21320;-54
2021/10/29 17:37:21;;;;;;;339.48;144.95;;;;;;;7.00;79.72;102131.02;1762674;81;21196;-53
2021/10/29 17:40:26;;;;;;;294.52;120.42;;;;;;;6.96;80.01;102141.77;1762696;81;21338;-54
2021/10/29 17:43:34;;;;;;;329.85;136.80;;;;;;;6.94;80.49;102132.83;1762631;81;21366;-54
2021/10/29 17:46:41;;;;;;;311.35;136.35;;;;;;;6.96;81.08;102143.13;1762668;81;21331;-53
2021/10/29 17:49:50;;;;;;;308.63;135.63;;;;;;;6.94;81.19;102136.91;1762732;81;21330;-53
2021/10/29 17:52:57;;;;;;;317.52;133.22;;;;;;;6.82;80.81;102141.38;1762698;81;21788;-54
2021/10/29 17:56:09;;;;;;;280.70;117.13;;;;;;;6.74;80.74;102139.68;1762704;81;21350;-54
2021/10/29 17:59:15;;;;;;;390.30;177.15;;;;;;;6.68;80.84;102145.56;1762490;81;21188;-54
2021/10/29 18:02:23;;;;;;;197.68;90.28;;;;;;;6.65;81.38;102149.86;1762759;81;21185;-54
2021/10/29 18:05:30;;;;;;;165.73;76.67;;;;;;;6.61;81.66;102157.00;1762502;81;21331;-54
2021/10/29 18:08:51;;;;;;;163.70;77.10;;;;;;;6.58;82.14;102154.49;1762645;81;21331;-53
2021/10/29 18:11:51;;;;;;;196.72;87.50;;;;;;;6.53;82.42;102156.18;1762583;81;21345;-54
2021/10/29 18:15:01;;;;;;;203.15;92.62;;;;;;;6.48;82.58;102165.63;1762403;81;21168;-55
2021/10/29 18:18:08;;;;;;;185.52;84.45;;;;;;;6.40;82.45;102162.55;1762476;81;21289;-54
2021/10/29 18:21:15;;;;;;;192.70;90.12;;;;;;;6.31;82.24;102170.84;1762688;81;21369;-54
2021/10/29 18:24:21;;;;;;;252.95;114.30;;;;;;;6.24;82.27;102164.58;1762808;81;21347;-54
2021/10/29 18:27:28;;;;;;;282.25;130.43;;;;;;;6.20;82.42;102172.58;1762854;81;21402;-55
2021/10/29 18:30:37;;;;;;;306.50;138.43;;;;;;;6.12;82.19;102170.36;1762629;81;21326;-54
2021/10/29 18:33:46;;;;;;;297.72;133.15;;;;;;;6.04;82.06;102175.47;1762391;81;21235;-54
2021/10/29 18:36:52;;;;;;;296.87;129.63;;;;;;;5.96;81.92;102176.47;1763206;81;21678;-54
2021/10/29 18:39:58;;;;;;;280.25;119.90;;;;;;;5.85;81.94;102170.38;1761105;81;21204;-53
2021/10/29 18:43:06;;;;;;;314.52;131.65;;;;;;;5.82;82.29;102172.42;1746286;81;22149;-54
2021/10/29 18:46:12;;;;;;;350.70;134.07;;;;;;;5.80;82.56;102183.36;1762486;80;21224;-54
2021/10/29 18:49:21;;;;;;;392.20;140.07;;;;;;;5.80;82.61;102188.79;1766311;81;21336;-54
2021/10/29 18:52:27;;;;;;;362.20;136.97;;;;;;;5.74;82.27;102179.69;1772600;80;21327;-54